Riverdance — C6CG3 — position and weather

sailwx.info

Track history (hours):
 
Tides and Currents Weather Stations Pressure Air Temp Water Temp Dewpoint Dewpoint Depression Visibility Wind Speed Wind Dir Waves Ship Positions

Riverdance

Operator: Crescent Marine Services Ltd

Last reported at 2018-Oct-24 03:05 UTC. Time now 2018-Oct-24 04:53 UTC.
Position N 54°01' E 000°42'.

Length 72 m; draft 5.8 m.

Type: Other ship. MMSI: 311000463.

Date/timePositionNaut miles runAvg speedWind from/ knotsBaromVisibWave heightAir tempDewpointWater temp
2018-Oct-24 03:05N 54°01' E 000°42'2 6.3
2018-Oct-24 02:46N 54°03' E 000°40'2 6.2
2018-Oct-24 02:30N 54°04' E 000°37'3 6.2
2018-Oct-24 02:03N 54°05' E 000°33'0 6.2
2018-Oct-24 02:00N 54°05' E 000°33'7 6.3
2018-Oct-24 00:51N 54°10' E 000°23'2 7.0
2018-Oct-24 00:30N 54°11' E 000°20'3 6.6
2018-Oct-24 00:04N 54°13' E 000°16'0 6.7
2018-Oct-24 00:00N 54°13' E 000°16'3 6.4
2018-Oct-23 23:30N 54°16' E 000°12'4 6.9
2018-Oct-23 22:57N 54°18' E 000°06'3 7.0
2018-Oct-23 22:30N 54°20' E 000°02'3 7.3
2018-Oct-23 22:02N 54°22' W 000°02'0 7.5
2018-Oct-23 21:59N 54°22' W 000°03'4 7.3
2018-Oct-23 21:30N 54°24' W 000°08'3 7.3
2018-Oct-23 21:03N 54°26' W 000°12'11 0.4
2018-Oct-22 20:37N 54°20' E 000°03'110.8
2018-Oct-22 20:30N 54°19' E 000°04'510.7
2018-Oct-22 20:03N 54°17' E 000°11'110.7
2018-Oct-22 19:59N 54°16' E 000°12'510.5
2018-Oct-22 19:30N 54°13' E 000°19'610.2
2018-Oct-22 18:55N 54°10' E 000°27'5 9.8
2018-Oct-22 18:23N 54°07' E 000°35'3 9.7
2018-Oct-22 18:03N 54°05' E 000°39'1 9.8
2018-Oct-22 17:59N 54°05' E 000°40'16 0.5
2018-Oct-21 09:32N 53°54' E 001°00'0 0.4
2018-Oct-21 08:37N 53°55' E 001°01'0 0.6
2018-Oct-21 07:46N 53°54' E 001°01'1 0.3
2018-Oct-21 04:31N 53°55' E 001°00'0 0.1
2018-Oct-20 23:51N 53°54' E 000°60'1 1.1
2018-Oct-20 23:18N 53°55' E 001°01'1 4.0
2018-Oct-20 23:03N 53°54' E 000°59'0 4.1
2018-Oct-20 23:00N 53°54' E 000°59'2 2.9
2018-Oct-20 22:23N 53°55' E 001°02'1 3.0
2018-Oct-20 21:55N 53°54' E 000°60'1 2.1
2018-Oct-20 21:16N 53°55' E 001°02'0 1.0
2018-Oct-20 21:02N 53°54' E 001°01'0 4.1
2018-Oct-20 21:00N 53°54' E 001°01'0 0.2
2018-Oct-20 20:13N 53°54' E 001°01'0 1.0
2018-Oct-20 19:43N 53°54' E 001°01'1 0.6
2018-Oct-20 18:46N 53°54' E 001°02'2 3.9
2018-Oct-20 18:19N 53°55' E 000°59'1 3.9
2018-Oct-20 18:00N 53°56' E 000°57'2 3.9
2018-Oct-20 17:30N 53°57' E 000°55'2 3.9
2018-Oct-20 17:03N 53°58' E 000°52'0 3.9
2018-Oct-20 17:00N 53°58' E 000°52'3 4.0
2018-Oct-20 16:18N 53°60' E 000°48'1 3.8
2018-Oct-20 16:03N 54°00' E 000°47'0 3.8
2018-Oct-20 16:00N 54°01' E 000°47'2 3.9
2018-Oct-20 15:30N 54°02' E 000°44'2 2.2
2018-Oct-20 14:48N 54°01' E 000°46'3 4.0
2018-Oct-20 14:04N 53°59' E 000°50'0 4.0
2018-Oct-20 13:57N 53°59' E 000°51'2 4.0
2018-Oct-20 13:31N 53°58' E 000°53'2 4.0
2018-Oct-20 12:54N 53°56' E 000°57'2 4.0
2018-Oct-20 12:29N 53°55' E 000°59'2 2.7
2018-Oct-20 11:43N 53°53' E 000°60'2 3.0
2018-Oct-20 11:11N 53°54' E 001°02'0 4.0
2018-Oct-20 11:04N 53°55' E 001°02'0 2.7
2018-Oct-20 10:58N 53°54' E 001°02'2 4.1
2018-Oct-20 10:29N 53°53' E 000°59'0 0.4
2018-Oct-20 09:11N 53°54' E 000°59'0 3.9
2018-Oct-20 09:03N 53°54' E 001°00'1 3.7
2018-Oct-20 08:48N 53°55' E 001°01'1 1.7
2018-Oct-20 08:24N 53°54' E 001°00'1 2.3
2018-Oct-20 08:01N 53°54' E 000°59'0 4.1
2018-Oct-20 07:58N 53°54' E 000°59'1 0.9
2018-Oct-20 07:16N 53°55' E 001°00'1 1.1
2018-Oct-20 06:25N 53°55' E 001°02'2 3.6
2018-Oct-20 05:58N 53°54' E 000°59'1 0.3
2018-Oct-20 04:11N 53°54' E 000°60'610.2
2018-Oct-20 03:38N 53°58' E 000°52'710.3
2018-Oct-20 02:55N 54°02' E 000°42'710.8
2018-Oct-20 02:17N 54°06' E 000°32'410.8
2018-Oct-20 01:55N 54°08' E 000°27'410.8
2018-Oct-20 01:30N 54°11' E 000°21'511.0
2018-Oct-20 01:03N 54°14' E 000°14'111.0
2018-Oct-20 01:00N 54°14' E 000°13'811.1
2018-Oct-20 00:15N 54°19' E 000°02'610.9
2018-Oct-19 23:43N 54°23' W 000°06'310.7
2018-Oct-19 23:25N 54°25' W 000°11'4610.5
2018-Oct-19 19:00N 54°53' W 001°14'5 9.3
2018-Oct-19 18:29N 54°55' W 001°21'1 0.2
2018-Oct-19 14:55N 54°55' W 001°22'0 0.0
2018-Oct-19 11:13N 54°55' W 001°22'0 0.0
2018-Oct-19 01:58N 54°55' W 001°22'0 0.0
2018-Oct-18 03:34N 54°55' W 001°22'0 0.0
2018-Oct-17 22:38N 54°55' W 001°22'0 0.2
2018-Oct-17 22:17N 54°55' W 001°22'0 1.2
2018-Oct-17 22:03N 54°55' W 001°22'0 3.9
2018-Oct-17 22:00N 54°55' W 001°21'4 7.8
2018-Oct-17 21:30N 54°53' W 001°15'511.4
2018-Oct-17 21:03N 54°50' W 001°08'111.4
2018-Oct-17 21:00N 54°50' W 001°07'611.4
2018-Oct-17 20:29N 54°46' W 000°59'3811.1
2018-Oct-17 17:02N 54°20' W 000°11'111.6
2018-Oct-17 16:58N 54°20' W 000°10'511.5
2018-Oct-17 16:30N 54°15' W 000°05'511.7
2018-Oct-17 16:03N 54°11' E 000°01'111.5
2018-Oct-17 16:00N 54°11' E 000°02'611.6
2018-Oct-17 15:30N 54°06' E 000°08'511.6
2018-Oct-17 15:03N 54°02' E 000°13'111.3
2018-Oct-17 15:00N 54°02' E 000°14'1111.0
2018-Oct-17 14:00N 53°54' E 000°27'1 1.2
2018-Oct-17 13:30N 53°53' E 000°26'1 2.4
2018-Oct-17 13:03N 53°53' E 000°27'0 3.7
2018-Oct-17 13:00N 53°52' E 000°27'3 6.3
2018-Oct-17 12:30N 53°51' E 000°23'510.0
2018-Oct-17 12:03N 53°47' E 000°19'0 9.8
2018-Oct-17 12:00N 53°46' E 000°18'3 5.5
2018-Oct-17 11:30N 53°45' E 000°15'0 0.1
2018-Oct-17 11:03N 53°44' E 000°15'0 0.3
2018-Oct-17 10:53N 53°44' E 000°15'1 1.7
2018-Oct-17 10:30N 53°44' E 000°14'0 0.1
2018-Oct-17 10:03N 53°44' E 000°14'0 0.0
2018-Oct-17 10:00N 53°44' E 000°14'1 2.1
2018-Oct-17 09:30N 53°43' E 000°14'1 2.4
2018-Oct-17 09:03N 53°42' E 000°13'0 4.4
2018-Oct-17 09:00N 53°42' E 000°13'2 4.2
2018-Oct-17 08:31N 53°44' E 000°14'1 3.3
2018-Oct-17 08:03N 53°45' E 000°16'0 0.1
2018-Oct-17 08:00N 53°45' E 000°16'0 0.0
2018-Oct-17 07:30N 53°45' E 000°16'0 0.0
2018-Oct-17 07:03N 53°45' E 000°16'0 0.0
2018-Oct-17 07:00N 53°45' E 000°16'0 0.0
2018-Oct-17 06:30N 53°45' E 000°16'0 0.0
2018-Oct-17 06:03N 53°45' E 000°16'0 0.0
2018-Oct-17 06:01N 53°45' E 000°16'0 0.0
2018-Oct-17 05:30N 53°45' E 000°16'0 0.0
2018-Oct-17 05:03N 53°45' E 000°16'0 0.0
2018-Oct-17 05:00N 53°45' E 000°16'0 0.0
2018-Oct-17 04:30N 53°45' E 000°16'0 0.4
2018-Oct-17 04:03N 53°45' E 000°16'0 3.2
2018-Oct-17 04:00N 53°45' E 000°16'1 2.8
2018-Oct-17 03:30N 53°46' E 000°18'1 3.0
2018-Oct-17 03:04N 53°47' E 000°19'0 2.9
2018-Oct-17 03:00N 53°48' E 000°19'2 3.0
2018-Oct-17 02:30N 53°49' E 000°21'1 3.4
2018-Oct-17 02:03N 53°50' E 000°22'0 4.1
2018-Oct-17 02:00N 53°50' E 000°23'2 4.1
2018-Oct-17 01:30N 53°52' E 000°24'1 2.6
2018-Oct-17 01:03N 53°53' E 000°26'0 1.5
2018-Oct-17 01:00N 53°53' E 000°26'1 2.8
2018-Oct-17 00:30N 53°54' E 000°27'2 3.5
2018-Oct-17 00:03N 53°53' E 000°25'0 3.7
2018-Oct-17 00:00N 53°53' E 000°25'1 2.3
2018-Oct-16 23:30N 53°53' E 000°27'1 1.6
2018-Oct-16 23:04N 53°53' E 000°26'0 0.0
2018-Oct-16 23:01N 53°53' E 000°26'0 0.0
2018-Oct-16 22:30N 53°53' E 000°26'0 0.1
2018-Oct-16 22:03N 53°53' E 000°27'0 0.2
2018-Oct-16 22:01N 53°53' E 000°27'1 2.1
2018-Oct-16 21:30N 53°52' E 000°25'0 0.5
2018-Oct-16 21:03N 53°52' E 000°25'0 3.9
2018-Oct-16 21:00N 53°52' E 000°25'2 4.5
2018-Oct-16 20:30N 53°50' E 000°22'0 0.2
2018-Oct-16 20:03N 53°50' E 000°22'0 3.4
2018-Oct-16 20:00N 53°50' E 000°22'2 3.3
2018-Oct-16 19:30N 53°49' E 000°21'0 0.1
2018-Oct-16 19:03N 53°49' E 000°21'0 2.6
2018-Oct-16 19:00N 53°49' E 000°21'3 5.3
2018-Oct-16 18:30N 53°46' E 000°18'0 0.6
2018-Oct-16 18:03N 53°46' E 000°18'0 0.0
2018-Oct-16 18:00N 53°46' E 000°18'1 1.4
2018-Oct-16 17:29N 53°46' E 000°17'0 0.1
2018-Oct-16 17:03N 53°46' E 000°17'0 0.6
2018-Oct-16 17:00N 53°46' E 000°17'0 0.8
2018-Oct-16 16:30N 53°46' E 000°16'0 0.0
2018-Oct-16 16:03N 53°46' E 000°16'0 0.5
2018-Oct-16 16:00N 53°46' E 000°16'1 1.3
2018-Oct-16 15:30N 53°46' E 000°17'2 5.2
2018-Oct-16 15:03N 53°45' E 000°21'011.0
2018-Oct-16 15:00N 53°44' E 000°21'510.7
2018-Oct-16 14:30N 53°43' E 000°30'3110.5
2018-Oct-16 11:33N 53°39' E 001°22'0 9.8
2018-Oct-16 11:30N 53°39' E 001°23'4 9.9
2018-Oct-16 11:03N 53°38' E 001°30'0 9.9
2018-Oct-16 11:00N 53°38' E 001°31'5 9.9
2018-Oct-16 10:29N 53°36' E 001°39'3 7.5
2018-Oct-16 10:03N 53°35' E 001°44'0 1.7
2018-Oct-16 10:00N 53°35' E 001°44'1 2.5
2018-Oct-16 09:30N 53°35' E 001°46'0 0.5
2018-Oct-16 08:47N 53°35' E 001°47'1 3.6
2018-Oct-16 08:31N 53°36' E 001°47'1 2.3
2018-Oct-16 08:02N 53°37' E 001°46'0 0.7
2018-Oct-16 07:49N 53°36' E 001°46'0 0.6
2018-Oct-16 07:30N 53°36' E 001°46'0 0.7
2018-Oct-16 07:03N 53°36' E 001°47'0 1.0
2018-Oct-16 07:01N 53°36' E 001°47'1 1.6
2018-Oct-16 06:30N 53°36' E 001°45'0 0.0
2018-Oct-16 06:03N 53°36' E 001°45'0 0.0
2018-Oct-16 05:58N 53°36' E 001°45'0 0.0
2018-Oct-16 05:30N 53°36' E 001°45'0 0.1
2018-Oct-16 05:03N 53°36' E 001°45'0 0.3
2018-Oct-16 05:00N 53°36' E 001°45'1 2.8
2018-Oct-16 04:30N 53°35' E 001°47'0 0.0
2018-Oct-16 04:03N 53°35' E 001°47'0 0.1
2018-Oct-16 04:00N 53°35' E 001°47'1 1.1
2018-Oct-16 03:27N 53°36' E 001°46'0 0.1
2018-Oct-16 03:03N 53°36' E 001°46'0 0.2
2018-Oct-16 03:00N 53°36' E 001°46'0 0.6
2018-Oct-16 02:30N 53°35' E 001°46'0 0.5
2018-Oct-16 02:01N 53°35' E 001°46'0 3.5
2018-Oct-16 02:00N 53°35' E 001°45'0 0.4
2018-Oct-16 01:24N 53°35' E 001°45'1 1.6
2018-Oct-16 00:51N 53°36' E 001°46'1 1.6
2018-Oct-16 00:25N 53°36' E 001°45'0 0.5
2018-Oct-15 23:38N 53°36' E 001°45'3 3.5
2018-Oct-15 22:42N 53°39' E 001°45'2 0.1
2018-Oct-15 03:52N 53°37' E 001°44'1 0.3
2018-Oct-15 00:10N 53°38' E 001°44'8 0.6
2018-Oct-14 10:02N 53°32' E 001°53'0 3.6
2018-Oct-14 10:00N 53°32' E 001°53'1 1.1
2018-Oct-14 09:29N 53°32' E 001°54'1 1.9
2018-Oct-14 09:03N 53°32' E 001°56'0 0.2
2018-Oct-14 08:57N 53°32' E 001°56'0 0.0
2018-Oct-14 08:29N 53°32' E 001°56'1 3.5
2018-Oct-14 08:03N 53°31' E 001°58'0 0.0
2018-Oct-14 07:29N 53°31' E 001°58'0 0.1
2018-Oct-14 06:57N 53°31' E 001°58'0 0.4
2018-Oct-14 06:30N 53°31' E 001°58'1 1.5
2018-Oct-14 06:03N 53°31' E 001°60'0 5.1
2018-Oct-14 06:00N 53°31' E 001°60'0 0.2
2018-Oct-14 05:13N 53°31' E 002°00'1 3.8
2018-Oct-14 05:03N 53°32' E 002°01'0 1.9
2018-Oct-14 04:57N 53°32' E 002°01'2 3.6
2018-Oct-14 04:26N 53°31' E 001°58'2 4.0
2018-Oct-14 04:03N 53°31' E 001°56'0 4.0
2018-Oct-14 03:57N 53°32' E 001°55'2 4.0
2018-Oct-14 03:29N 53°32' E 001°52'  
Track history (hours):
 
Tides and Currents Weather Stations Pressure Air Temp Water Temp Dewpoint Dewpoint Depression Visibility Wind Speed Wind Dir Waves Ship Positions

Riverdance

Operator: Crescent Marine Services Ltd

Last reported at 2018-Oct-24 03:05 UTC. Time now 2018-Oct-24 04:53 UTC.
Position N 54°01' E 000°42'.

Length 72 m; draft 5.8 m.

Type: Other ship. MMSI: 311000463.

Date/timePositionNaut miles runAvg speedWind from/ knotsBaromVisibWave heightAir tempDewpointWater temp
2018-Oct-24 03:05N 54°01' E 000°42'2 6.3
2018-Oct-24 02:46N 54°03' E 000°40'2 6.2
2018-Oct-24 02:30N 54°04' E 000°37'3 6.2
2018-Oct-24 02:03N 54°05' E 000°33'0 6.2
2018-Oct-24 02:00N 54°05' E 000°33'7 6.3
2018-Oct-24 00:51N 54°10' E 000°23'2 7.0
2018-Oct-24 00:30N 54°11' E 000°20'3 6.6
2018-Oct-24 00:04N 54°13' E 000°16'0 6.7
2018-Oct-24 00:00N 54°13' E 000°16'3 6.4
2018-Oct-23 23:30N 54°16' E 000°12'4 6.9
2018-Oct-23 22:57N 54°18' E 000°06'3 7.0
2018-Oct-23 22:30N 54°20' E 000°02'3 7.3
2018-Oct-23 22:02N 54°22' W 000°02'0 7.5
2018-Oct-23 21:59N 54°22' W 000°03'4 7.3
2018-Oct-23 21:30N 54°24' W 000°08'3 7.3
2018-Oct-23 21:03N 54°26' W 000°12'11 0.4
2018-Oct-22 20:37N 54°20' E 000°03'110.8
2018-Oct-22 20:30N 54°19' E 000°04'510.7
2018-Oct-22 20:03N 54°17' E 000°11'110.7
2018-Oct-22 19:59N 54°16' E 000°12'510.5
2018-Oct-22 19:30N 54°13' E 000°19'610.2
2018-Oct-22 18:55N 54°10' E 000°27'5 9.8
2018-Oct-22 18:23N 54°07' E 000°35'3 9.7
2018-Oct-22 18:03N 54°05' E 000°39'1 9.8
2018-Oct-22 17:59N 54°05' E 000°40'16 0.5
2018-Oct-21 09:32N 53°54' E 001°00'0 0.4
2018-Oct-21 08:37N 53°55' E 001°01'0 0.6
2018-Oct-21 07:46N 53°54' E 001°01'1 0.3
2018-Oct-21 04:31N 53°55' E 001°00'0 0.1
2018-Oct-20 23:51N 53°54' E 000°60'1 1.1
2018-Oct-20 23:18N 53°55' E 001°01'1 4.0
2018-Oct-20 23:03N 53°54' E 000°59'0 4.1
2018-Oct-20 23:00N 53°54' E 000°59'2 2.9
2018-Oct-20 22:23N 53°55' E 001°02'1 3.0
2018-Oct-20 21:55N 53°54' E 000°60'1 2.1
2018-Oct-20 21:16N 53°55' E 001°02'0 1.0
2018-Oct-20 21:02N 53°54' E 001°01'0 4.1
2018-Oct-20 21:00N 53°54' E 001°01'0 0.2
2018-Oct-20 20:13N 53°54' E 001°01'0 1.0
2018-Oct-20 19:43N 53°54' E 001°01'1 0.6
2018-Oct-20 18:46N 53°54' E 001°02'2 3.9
2018-Oct-20 18:19N 53°55' E 000°59'1 3.9
2018-Oct-20 18:00N 53°56' E 000°57'2 3.9
2018-Oct-20 17:30N 53°57' E 000°55'2 3.9
2018-Oct-20 17:03N 53°58' E 000°52'0 3.9
2018-Oct-20 17:00N 53°58' E 000°52'3 4.0
2018-Oct-20 16:18N 53°60' E 000°48'1 3.8
2018-Oct-20 16:03N 54°00' E 000°47'0 3.8
2018-Oct-20 16:00N 54°01' E 000°47'2 3.9
2018-Oct-20 15:30N 54°02' E 000°44'2 2.2
2018-Oct-20 14:48N 54°01' E 000°46'3 4.0
2018-Oct-20 14:04N 53°59' E 000°50'0 4.0
2018-Oct-20 13:57N 53°59' E 000°51'2 4.0
2018-Oct-20 13:31N 53°58' E 000°53'2 4.0
2018-Oct-20 12:54N 53°56' E 000°57'2 4.0
2018-Oct-20 12:29N 53°55' E 000°59'2 2.7
2018-Oct-20 11:43N 53°53' E 000°60'2 3.0
2018-Oct-20 11:11N 53°54' E 001°02'0 4.0
2018-Oct-20 11:04N 53°55' E 001°02'0 2.7
2018-Oct-20 10:58N 53°54' E 001°02'2 4.1
2018-Oct-20 10:29N 53°53' E 000°59'0 0.4
2018-Oct-20 09:11N 53°54' E 000°59'0 3.9
2018-Oct-20 09:03N 53°54' E 001°00'1 3.7
2018-Oct-20 08:48N 53°55' E 001°01'1 1.7
2018-Oct-20 08:24N 53°54' E 001°00'1 2.3
2018-Oct-20 08:01N 53°54' E 000°59'0 4.1
2018-Oct-20 07:58N 53°54' E 000°59'1 0.9
2018-Oct-20 07:16N 53°55' E 001°00'1 1.1
2018-Oct-20 06:25N 53°55' E 001°02'2 3.6
2018-Oct-20 05:58N 53°54' E 000°59'1 0.3
2018-Oct-20 04:11N 53°54' E 000°60'610.2
2018-Oct-20 03:38N 53°58' E 000°52'710.3
2018-Oct-20 02:55N 54°02' E 000°42'710.8
2018-Oct-20 02:17N 54°06' E 000°32'410.8
2018-Oct-20 01:55N 54°08' E 000°27'410.8
2018-Oct-20 01:30N 54°11' E 000°21'511.0
2018-Oct-20 01:03N 54°14' E 000°14'111.0
2018-Oct-20 01:00N 54°14' E 000°13'811.1
2018-Oct-20 00:15N 54°19' E 000°02'610.9
2018-Oct-19 23:43N 54°23' W 000°06'310.7
2018-Oct-19 23:25N 54°25' W 000°11'4610.5
2018-Oct-19 19:00N 54°53' W 001°14'5 9.3
2018-Oct-19 18:29N 54°55' W 001°21'1 0.2
2018-Oct-19 14:55N 54°55' W 001°22'0 0.0
2018-Oct-19 11:13N 54°55' W 001°22'0 0.0
2018-Oct-19 01:58N 54°55' W 001°22'0 0.0
2018-Oct-18 03:34N 54°55' W 001°22'0 0.0
2018-Oct-17 22:38N 54°55' W 001°22'0 0.2
2018-Oct-17 22:17N 54°55' W 001°22'0 1.2
2018-Oct-17 22:03N 54°55' W 001°22'0 3.9
2018-Oct-17 22:00N 54°55' W 001°21'4 7.8
2018-Oct-17 21:30N 54°53' W 001°15'511.4
2018-Oct-17 21:03N 54°50' W 001°08'111.4
2018-Oct-17 21:00N 54°50' W 001°07'611.4
2018-Oct-17 20:29N 54°46' W 000°59'3811.1
2018-Oct-17 17:02N 54°20' W 000°11'111.6
2018-Oct-17 16:58N 54°20' W 000°10'511.5
2018-Oct-17 16:30N 54°15' W 000°05'511.7
2018-Oct-17 16:03N 54°11' E 000°01'111.5
2018-Oct-17 16:00N 54°11' E 000°02'611.6
2018-Oct-17 15:30N 54°06' E 000°08'511.6
2018-Oct-17 15:03N 54°02' E 000°13'111.3
2018-Oct-17 15:00N 54°02' E 000°14'1111.0
2018-Oct-17 14:00N 53°54' E 000°27'1 1.2
2018-Oct-17 13:30N 53°53' E 000°26'1 2.4
2018-Oct-17 13:03N 53°53' E 000°27'0 3.7
2018-Oct-17 13:00N 53°52' E 000°27'3 6.3
2018-Oct-17 12:30N 53°51' E 000°23'510.0
2018-Oct-17 12:03N 53°47' E 000°19'0 9.8
2018-Oct-17 12:00N 53°46' E 000°18'3 5.5
2018-Oct-17 11:30N 53°45' E 000°15'0 0.1
2018-Oct-17 11:03N 53°44' E 000°15'0 0.3
2018-Oct-17 10:53N 53°44' E 000°15'1 1.7
2018-Oct-17 10:30N 53°44' E 000°14'0 0.1
2018-Oct-17 10:03N 53°44' E 000°14'0 0.0
2018-Oct-17 10:00N 53°44' E 000°14'1 2.1
2018-Oct-17 09:30N 53°43' E 000°14'1 2.4
2018-Oct-17 09:03N 53°42' E 000°13'0 4.4
2018-Oct-17 09:00N 53°42' E 000°13'2 4.2
2018-Oct-17 08:31N 53°44' E 000°14'1 3.3
2018-Oct-17 08:03N 53°45' E 000°16'0 0.1
2018-Oct-17 08:00N 53°45' E 000°16'0 0.0
2018-Oct-17 07:30N 53°45' E 000°16'0 0.0
2018-Oct-17 07:03N 53°45' E 000°16'0 0.0
2018-Oct-17 07:00N 53°45' E 000°16'0 0.0
2018-Oct-17 06:30N 53°45' E 000°16'0 0.0
2018-Oct-17 06:03N 53°45' E 000°16'0 0.0
2018-Oct-17 06:01N 53°45' E 000°16'0 0.0
2018-Oct-17 05:30N 53°45' E 000°16'0 0.0
2018-Oct-17 05:03N 53°45' E 000°16'0 0.0
2018-Oct-17 05:00N 53°45' E 000°16'0 0.0
2018-Oct-17 04:30N 53°45' E 000°16'0 0.4
2018-Oct-17 04:03N 53°45' E 000°16'0 3.2
2018-Oct-17 04:00N 53°45' E 000°16'1 2.8
2018-Oct-17 03:30N 53°46' E 000°18'1 3.0
2018-Oct-17 03:04N 53°47' E 000°19'0 2.9
2018-Oct-17 03:00N 53°48' E 000°19'2 3.0
2018-Oct-17 02:30N 53°49' E 000°21'1 3.4
2018-Oct-17 02:03N 53°50' E 000°22'0 4.1
2018-Oct-17 02:00N 53°50' E 000°23'2 4.1
2018-Oct-17 01:30N 53°52' E 000°24'1 2.6
2018-Oct-17 01:03N 53°53' E 000°26'0 1.5
2018-Oct-17 01:00N 53°53' E 000°26'1 2.8
2018-Oct-17 00:30N 53°54' E 000°27'2 3.5
2018-Oct-17 00:03N 53°53' E 000°25'0 3.7
2018-Oct-17 00:00N 53°53' E 000°25'1 2.3
2018-Oct-16 23:30N 53°53' E 000°27'1 1.6
2018-Oct-16 23:04N 53°53' E 000°26'0 0.0
2018-Oct-16 23:01N 53°53' E 000°26'0 0.0
2018-Oct-16 22:30N 53°53' E 000°26'0 0.1
2018-Oct-16 22:03N 53°53' E 000°27'0 0.2
2018-Oct-16 22:01N 53°53' E 000°27'1 2.1
2018-Oct-16 21:30N 53°52' E 000°25'0 0.5
2018-Oct-16 21:03N 53°52' E 000°25'0 3.9
2018-Oct-16 21:00N 53°52' E 000°25'2 4.5
2018-Oct-16 20:30N 53°50' E 000°22'0 0.2
2018-Oct-16 20:03N 53°50' E 000°22'0 3.4
2018-Oct-16 20:00N 53°50' E 000°22'2 3.3
2018-Oct-16 19:30N 53°49' E 000°21'0 0.1
2018-Oct-16 19:03N 53°49' E 000°21'0 2.6
2018-Oct-16 19:00N 53°49' E 000°21'3 5.3
2018-Oct-16 18:30N 53°46' E 000°18'0 0.6
2018-Oct-16 18:03N 53°46' E 000°18'0 0.0
2018-Oct-16 18:00N 53°46' E 000°18'1 1.4
2018-Oct-16 17:29N 53°46' E 000°17'0 0.1
2018-Oct-16 17:03N 53°46' E 000°17'0 0.6
2018-Oct-16 17:00N 53°46' E 000°17'0 0.8
2018-Oct-16 16:30N 53°46' E 000°16'0 0.0
2018-Oct-16 16:03N 53°46' E 000°16'0 0.5
2018-Oct-16 16:00N 53°46' E 000°16'1 1.3
2018-Oct-16 15:30N 53°46' E 000°17'2 5.2
2018-Oct-16 15:03N 53°45' E 000°21'011.0
2018-Oct-16 15:00N 53°44' E 000°21'510.7
2018-Oct-16 14:30N 53°43' E 000°30'3110.5
2018-Oct-16 11:33N 53°39' E 001°22'0 9.8
2018-Oct-16 11:30N 53°39' E 001°23'4 9.9
2018-Oct-16 11:03N 53°38' E 001°30'0 9.9
2018-Oct-16 11:00N 53°38' E 001°31'5 9.9
2018-Oct-16 10:29N 53°36' E 001°39'3 7.5
2018-Oct-16 10:03N 53°35' E 001°44'0 1.7
2018-Oct-16 10:00N 53°35' E 001°44'1 2.5
2018-Oct-16 09:30N 53°35' E 001°46'0 0.5
2018-Oct-16 08:47N 53°35' E 001°47'1 3.6
2018-Oct-16 08:31N 53°36' E 001°47'1 2.3
2018-Oct-16 08:02N 53°37' E 001°46'0 0.7
2018-Oct-16 07:49N 53°36' E 001°46'0 0.6
2018-Oct-16 07:30N 53°36' E 001°46'0 0.7
2018-Oct-16 07:03N 53°36' E 001°47'0 1.0
2018-Oct-16 07:01N 53°36' E 001°47'1 1.6
2018-Oct-16 06:30N 53°36' E 001°45'0 0.0
2018-Oct-16 06:03N 53°36' E 001°45'0 0.0
2018-Oct-16 05:58N 53°36' E 001°45'0 0.0
2018-Oct-16 05:30N 53°36' E 001°45'0 0.1
2018-Oct-16 05:03N 53°36' E 001°45'0 0.3
2018-Oct-16 05:00N 53°36' E 001°45'1 2.8
2018-Oct-16 04:30N 53°35' E 001°47'0 0.0
2018-Oct-16 04:03N 53°35' E 001°47'0 0.1
2018-Oct-16 04:00N 53°35' E 001°47'1 1.1
2018-Oct-16 03:27N 53°36' E 001°46'0 0.1
2018-Oct-16 03:03N 53°36' E 001°46'0 0.2
2018-Oct-16 03:00N 53°36' E 001°46'0 0.6
2018-Oct-16 02:30N 53°35' E 001°46'0 0.5
2018-Oct-16 02:01N 53°35' E 001°46'0 3.5
2018-Oct-16 02:00N 53°35' E 001°45'0 0.4
2018-Oct-16 01:24N 53°35' E 001°45'1 1.6
2018-Oct-16 00:51N 53°36' E 001°46'1 1.6
2018-Oct-16 00:25N 53°36' E 001°45'0 0.5
2018-Oct-15 23:38N 53°36' E 001°45'3 3.5
2018-Oct-15 22:42N 53°39' E 001°45'2 0.1
2018-Oct-15 03:52N 53°37' E 001°44'1 0.3
2018-Oct-15 00:10N 53°38' E 001°44'8 0.6
2018-Oct-14 10:02N 53°32' E 001°53'0 3.6
2018-Oct-14 10:00N 53°32' E 001°53'1 1.1
2018-Oct-14 09:29N 53°32' E 001°54'1 1.9
2018-Oct-14 09:03N 53°32' E 001°56'0 0.2
2018-Oct-14 08:57N 53°32' E 001°56'0 0.0
2018-Oct-14 08:29N 53°32' E 001°56'1 3.5
2018-Oct-14 08:03N 53°31' E 001°58'0 0.0
2018-Oct-14 07:29N 53°31' E 001°58'0 0.1
2018-Oct-14 06:57N 53°31' E 001°58'0 0.4
2018-Oct-14 06:30N 53°31' E 001°58'1 1.5
2018-Oct-14 06:03N 53°31' E 001°60'0 5.1
2018-Oct-14 06:00N 53°31' E 001°60'0 0.2
2018-Oct-14 05:13N 53°31' E 002°00'1 3.8
2018-Oct-14 05:03N 53°32' E 002°01'0 1.9
2018-Oct-14 04:57N 53°32' E 002°01'2 3.6
2018-Oct-14 04:26N 53°31' E 001°58'2 4.0
2018-Oct-14 04:03N 53°31' E 001°56'0 4.0
2018-Oct-14 03:57N 53°32' E 001°55'2 4.0
2018-Oct-14 03:29N 53°32' E 001°52'  

Dump ship's entire track history